<?xml version="1.0" encoding="UTF-8" standalone="no" ?>
<gpx version="1.1" creator="Visorando" xmlns:xsi="http://www.w3.org/2001/XMLSchema-instance" xmlns="http://www.topografix.com/GPX/1/1" xsi:schemaLocation="http://www.topografix.com/GPX/1/1 http://www.topografix.com/GPX/1/1/gpx.xsd">
<metadata>
  <name>Lizartzu Antsestegi col d&amp;#039;Otxondo depuis Urdax</name>
  <link href="https://www.visorando.com/randonnee-lizartzu-antsestegi-col-d-otxondo-depuis/">
    <text>https://www.visorando.com/randonnee-lizartzu-antsestegi-col-d-otxondo-depuis/</text>
  </link>
</metadata><wpt lat="43.266474" lon="-1.503776">
  <ele>99</ele>
  <time>2017-01-19T07:56:13.000Z</time>
  <name>Urdax</name>
  <type>GENERIC</type>
</wpt><wpt lat="43.270555" lon="-1.493702">
  <ele>170</ele>
  <time>2017-01-19T08:19:45.000Z</time>
  <name>Route N121B</name>
  <type>GENERIC</type>
</wpt><wpt lat="43.271061" lon="-1.489279">
  <ele>198</ele>
  <time>2017-01-19T08:35:16.000Z</time>
  <name>Tourner à droite</name>
  <type>GENERIC</type>
</wpt><wpt lat="43.270203" lon="-1.475315">
  <ele>471</ele>
  <time>2017-01-19T09:10:23.000Z</time>
  <name>Crête herbeuse</name>
  <type>GENERIC</type>
</wpt><wpt lat="43.261923" lon="-1.456817">
  <ele>669</ele>
  <time>2017-01-19T09:48:09.000Z</time>
  <name>Route Napoléon</name>
  <type>GENERIC</type>
</wpt><wpt lat="43.259412" lon="-1.454067">
  <ele>785</ele>
  <time>2017-01-19T10:08:14.000Z</time>
  <name>Sommet du Lizartzu</name>
  <type>GENERIC</type>
</wpt><wpt lat="43.253107" lon="-1.461492">
  <ele>665</ele>
  <time>2017-01-19T10:26:49.000Z</time>
  <name>Passage canadien</name>
  <type>GENERIC</type>
</wpt><wpt lat="43.246816" lon="-1.456191">
  <ele>797</ele>
  <time>2017-01-19T10:49:10.000Z</time>
  <name>Antsestegi</name>
  <type>GENERIC</type>
</wpt><wpt lat="43.242307" lon="-1.464188">
  <ele>707</ele>
  <time>2017-01-19T12:01:14.000Z</time>
  <name>Route Napoléon</name>
  <type>GENERIC</type>
</wpt><wpt lat="43.236421" lon="-1.494221">
  <ele>576</ele>
  <time>2017-01-19T12:57:07.000Z</time>
  <name>Col d'Otxondo</name>
  <type>GENERIC</type>
</wpt><wpt lat="43.238951" lon="-1.491466">
  <ele>497</ele>
  <time>2017-01-19T13:11:20.000Z</time>
  <name>Piste</name>
  <type>GENERIC</type>
</wpt><wpt lat="43.242172" lon="-1.491203">
  <ele>459</ele>
  <time>2017-01-19T13:20:07.000Z</time>
  <name>Croisement de pistes</name>
  <type>GENERIC</type>
</wpt><wpt lat="43.262483" lon="-1.498657">
  <ele>201</ele>
  <time>2017-01-19T14:01:05.000Z</time>
  <name>Piste bétonnée</name>
  <type>GENERIC</type>
</wpt><wpt lat="43.266475" lon="-1.503763">
  <ele>99</ele>
  <time>2017-01-19T14:15:15.000Z</time>
  <name>Urdax</name>
  <type>GENERIC</type>
</wpt><trk>
  <name>Lizartzu Antsestegi col d&amp;#039;Otxondo depuis Urdax</name>
  <trkseg>
    <trkpt lat="43.266474" lon="-1.503776">
      <ele>99</ele>
      <time>2017-01-19T07:56:13.000Z</time>
    </trkpt>
    <trkpt lat="43.26653" lon="-1.503302">
      <ele>98</ele>
      <time>2017-01-19T08:02:50.000Z</time>
    </trkpt>
    <trkpt lat="43.266826" lon="-1.503023">
      <ele>96</ele>
      <time>2017-01-19T08:05:56.000Z</time>
    </trkpt>
    <trkpt lat="43.266936" lon="-1.502798">
      <ele>96</ele>
      <time>2017-01-19T08:06:19.000Z</time>
    </trkpt>
    <trkpt lat="43.267162" lon="-1.502744">
      <ele>96</ele>
      <time>2017-01-19T08:06:45.000Z</time>
    </trkpt>
    <trkpt lat="43.267375" lon="-1.502397">
      <ele>101</ele>
      <time>2017-01-19T08:06:42.000Z</time>
    </trkpt>
    <trkpt lat="43.267497" lon="-1.502325">
      <ele>103</ele>
      <time>2017-01-19T08:06:56.000Z</time>
    </trkpt>
    <trkpt lat="43.267744" lon="-1.50212">
      <ele>105</ele>
      <time>2017-01-19T08:07:27.000Z</time>
    </trkpt>
    <trkpt lat="43.267913" lon="-1.501857">
      <ele>108</ele>
      <time>2017-01-19T08:07:57.000Z</time>
    </trkpt>
    <trkpt lat="43.268016" lon="-1.501756">
      <ele>109</ele>
      <time>2017-01-19T08:08:12.000Z</time>
    </trkpt>
    <trkpt lat="43.268136" lon="-1.501627">
      <ele>111</ele>
      <time>2017-01-19T08:08:27.000Z</time>
    </trkpt>
    <trkpt lat="43.268381" lon="-1.501306">
      <ele>114</ele>
      <time>2017-01-19T08:08:57.000Z</time>
    </trkpt>
    <trkpt lat="43.268527" lon="-1.500928">
      <ele>123</ele>
      <time>2017-01-19T08:09:29.000Z</time>
    </trkpt>
    <trkpt lat="43.268538" lon="-1.500883">
      <ele>124</ele>
      <time>2017-01-19T08:09:33.000Z</time>
    </trkpt>
    <trkpt lat="43.268632" lon="-1.500358">
      <ele>131</ele>
      <time>2017-01-19T08:10:07.000Z</time>
    </trkpt>
    <trkpt lat="43.268608" lon="-1.50025">
      <ele>133</ele>
      <time>2017-01-19T08:10:14.000Z</time>
    </trkpt>
    <trkpt lat="43.268617" lon="-1.499942">
      <ele>138</ele>
      <time>2017-01-19T08:10:37.000Z</time>
    </trkpt>
    <trkpt lat="43.268925" lon="-1.499725">
      <ele>137</ele>
      <time>2017-01-19T08:11:12.000Z</time>
    </trkpt>
    <trkpt lat="43.269206" lon="-1.499429">
      <ele>138</ele>
      <time>2017-01-19T08:11:40.000Z</time>
    </trkpt>
    <trkpt lat="43.269613" lon="-1.498793">
      <ele>143</ele>
      <time>2017-01-19T08:12:33.000Z</time>
    </trkpt>
    <trkpt lat="43.269948" lon="-1.498374">
      <ele>145</ele>
      <time>2017-01-19T08:13:11.000Z</time>
    </trkpt>
    <trkpt lat="43.270285" lon="-1.497857">
      <ele>151</ele>
      <time>2017-01-19T08:14:01.000Z</time>
    </trkpt>
    <trkpt lat="43.27057" lon="-1.497691">
      <ele>154</ele>
      <time>2017-01-19T08:14:31.000Z</time>
    </trkpt>
    <trkpt lat="43.270671" lon="-1.497373">
      <ele>154</ele>
      <time>2017-01-19T08:14:54.000Z</time>
    </trkpt>
    <trkpt lat="43.270777" lon="-1.496522">
      <ele>157</ele>
      <time>2017-01-19T08:15:47.000Z</time>
    </trkpt>
    <trkpt lat="43.270554" lon="-1.496112">
      <ele>161</ele>
      <time>2017-01-19T08:16:21.000Z</time>
    </trkpt>
    <trkpt lat="43.270529" lon="-1.496052">
      <ele>161</ele>
      <time>2017-01-19T08:16:26.000Z</time>
    </trkpt>
    <trkpt lat="43.27047" lon="-1.495669">
      <ele>163</ele>
      <time>2017-01-19T08:16:50.000Z</time>
    </trkpt>
    <trkpt lat="43.270396" lon="-1.495282">
      <ele>168</ele>
      <time>2017-01-19T08:17:20.000Z</time>
    </trkpt>
    <trkpt lat="43.270292" lon="-1.494792">
      <ele>175</ele>
      <time>2017-01-19T08:17:53.000Z</time>
    </trkpt>
    <trkpt lat="43.270287" lon="-1.494193">
      <ele>172</ele>
      <time>2017-01-19T08:18:51.000Z</time>
    </trkpt>
    <trkpt lat="43.270498" lon="-1.49385">
      <ele>170</ele>
      <time>2017-01-19T08:19:01.000Z</time>
    </trkpt>
    <trkpt lat="43.270555" lon="-1.493702">
      <ele>170</ele>
      <time>2017-01-19T08:19:45.000Z</time>
    </trkpt>
    <trkpt lat="43.270318" lon="-1.493621">
      <ele>172</ele>
      <time>2017-01-19T08:20:25.000Z</time>
    </trkpt>
    <trkpt lat="43.269904" lon="-1.493163">
      <ele>176</ele>
      <time>2017-01-19T08:21:08.000Z</time>
    </trkpt>
    <trkpt lat="43.269693" lon="-1.492519">
      <ele>172</ele>
      <time>2017-01-19T08:21:38.000Z</time>
    </trkpt>
    <trkpt lat="43.269568" lon="-1.492294">
      <ele>167</ele>
      <time>2017-01-19T08:22:06.000Z</time>
    </trkpt>
    <trkpt lat="43.269364" lon="-1.492224">
      <ele>164</ele>
      <time>2017-01-19T08:22:33.000Z</time>
    </trkpt>
    <trkpt lat="43.269211" lon="-1.492175">
      <ele>162</ele>
      <time>2017-01-19T08:22:46.000Z</time>
    </trkpt>
    <trkpt lat="43.269028" lon="-1.492075">
      <ele>158</ele>
      <time>2017-01-19T08:23:02.000Z</time>
    </trkpt>
    <trkpt lat="43.268782" lon="-1.492021">
      <ele>154</ele>
      <time>2017-01-19T08:23:24.000Z</time>
    </trkpt>
    <trkpt lat="43.268643" lon="-1.492035">
      <ele>153</ele>
      <time>2017-01-19T08:23:36.000Z</time>
    </trkpt>
    <trkpt lat="43.268366" lon="-1.492071">
      <ele>157</ele>
      <time>2017-01-19T08:24:04.000Z</time>
    </trkpt>
    <trkpt lat="43.268351" lon="-1.492065">
      <ele>156</ele>
      <time>2017-01-19T08:24:05.000Z</time>
    </trkpt>
    <trkpt lat="43.268076" lon="-1.491768">
      <ele>150</ele>
      <time>2017-01-19T08:24:37.000Z</time>
    </trkpt>
    <trkpt lat="43.268045" lon="-1.491586">
      <ele>147</ele>
      <time>2017-01-19T08:24:42.000Z</time>
    </trkpt>
    <trkpt lat="43.268139" lon="-1.490899">
      <ele>145</ele>
      <time>2017-01-19T08:25:28.000Z</time>
    </trkpt>
    <trkpt lat="43.268256" lon="-1.490502">
      <ele>148</ele>
      <time>2017-01-19T08:25:36.000Z</time>
    </trkpt>
    <trkpt lat="43.268483" lon="-1.490368">
      <ele>145</ele>
      <time>2017-01-19T08:26:08.000Z</time>
    </trkpt>
    <trkpt lat="43.268472" lon="-1.490501">
      <ele>145</ele>
      <time>2017-01-19T08:26:19.000Z</time>
    </trkpt>
    <trkpt lat="43.268485" lon="-1.490944">
      <ele>142</ele>
      <time>2017-01-19T08:26:53.000Z</time>
    </trkpt>
    <trkpt lat="43.268761" lon="-1.491077">
      <ele>142</ele>
      <time>2017-01-19T08:27:24.000Z</time>
    </trkpt>
    <trkpt lat="43.26899" lon="-1.490978">
      <ele>147</ele>
      <time>2017-01-19T08:27:51.000Z</time>
    </trkpt>
    <trkpt lat="43.269248" lon="-1.490599">
      <ele>157</ele>
      <time>2017-01-19T08:28:22.000Z</time>
    </trkpt>
    <trkpt lat="43.269425" lon="-1.490194">
      <ele>164</ele>
      <time>2017-01-19T08:28:59.000Z</time>
    </trkpt>
    <trkpt lat="43.269492" lon="-1.490048">
      <ele>167</ele>
      <time>2017-01-19T08:29:15.000Z</time>
    </trkpt>
    <trkpt lat="43.269592" lon="-1.489932">
      <ele>171</ele>
      <time>2017-01-19T08:29:30.000Z</time>
    </trkpt>
    <trkpt lat="43.269809" lon="-1.489874">
      <ele>174</ele>
      <time>2017-01-19T08:29:57.000Z</time>
    </trkpt>
    <trkpt lat="43.269965" lon="-1.489843">
      <ele>175</ele>
      <time>2017-01-19T08:30:14.000Z</time>
    </trkpt>
    <trkpt lat="43.270077" lon="-1.489804">
      <ele>177</ele>
      <time>2017-01-19T08:30:29.000Z</time>
    </trkpt>
    <trkpt lat="43.270255" lon="-1.489746">
      <ele>182</ele>
      <time>2017-01-19T08:30:44.000Z</time>
    </trkpt>
    <trkpt lat="43.270492" lon="-1.489745">
      <ele>182</ele>
      <time>2017-01-19T08:31:04.000Z</time>
    </trkpt>
    <trkpt lat="43.270671" lon="-1.489648">
      <ele>184</ele>
      <time>2017-01-19T08:31:21.000Z</time>
    </trkpt>
    <trkpt lat="43.270906" lon="-1.489453">
      <ele>192</ele>
      <time>2017-01-19T08:31:50.000Z</time>
    </trkpt>
    <trkpt lat="43.271061" lon="-1.489279">
      <ele>198</ele>
      <time>2017-01-19T08:35:16.000Z</time>
    </trkpt>
    <trkpt lat="43.270997" lon="-1.489096">
      <ele>205</ele>
      <time>2017-01-19T08:37:20.000Z</time>
    </trkpt>
    <trkpt lat="43.270964" lon="-1.48893">
      <ele>209</ele>
      <time>2017-01-19T08:37:41.000Z</time>
    </trkpt>
    <trkpt lat="43.270892" lon="-1.48867">
      <ele>217</ele>
      <time>2017-01-19T08:38:47.000Z</time>
    </trkpt>
    <trkpt lat="43.270874" lon="-1.488442">
      <ele>224</ele>
      <time>2017-01-19T08:39:30.000Z</time>
    </trkpt>
    <trkpt lat="43.270798" lon="-1.488176">
      <ele>229</ele>
      <time>2017-01-19T08:40:25.000Z</time>
    </trkpt>
    <trkpt lat="43.270771" lon="-1.487988">
      <ele>232</ele>
      <time>2017-01-19T08:40:43.000Z</time>
    </trkpt>
    <trkpt lat="43.270821" lon="-1.487681">
      <ele>240</ele>
      <time>2017-01-19T08:41:18.000Z</time>
    </trkpt>
    <trkpt lat="43.270881" lon="-1.487574">
      <ele>245</ele>
      <time>2017-01-19T08:42:16.000Z</time>
    </trkpt>
    <trkpt lat="43.270957" lon="-1.487377">
      <ele>251</ele>
      <time>2017-01-19T08:42:51.000Z</time>
    </trkpt>
    <trkpt lat="43.271044" lon="-1.487205">
      <ele>257</ele>
      <time>2017-01-19T08:43:18.000Z</time>
    </trkpt>
    <trkpt lat="43.271102" lon="-1.487097">
      <ele>260</ele>
      <time>2017-01-19T08:43:29.000Z</time>
    </trkpt>
    <trkpt lat="43.271191" lon="-1.486833">
      <ele>264</ele>
      <time>2017-01-19T08:43:58.000Z</time>
    </trkpt>
    <trkpt lat="43.271285" lon="-1.486616">
      <ele>267</ele>
      <time>2017-01-19T08:44:25.000Z</time>
    </trkpt>
    <trkpt lat="43.27134" lon="-1.486512">
      <ele>268</ele>
      <time>2017-01-19T08:44:38.000Z</time>
    </trkpt>
    <trkpt lat="43.271386" lon="-1.486265">
      <ele>273</ele>
      <time>2017-01-19T08:45:07.000Z</time>
    </trkpt>
    <trkpt lat="43.271391" lon="-1.486083">
      <ele>277</ele>
      <time>2017-01-19T08:45:23.000Z</time>
    </trkpt>
    <trkpt lat="43.271279" lon="-1.485578">
      <ele>282</ele>
      <time>2017-01-19T08:46:58.000Z</time>
    </trkpt>
    <trkpt lat="43.271211" lon="-1.485107">
      <ele>288</ele>
      <time>2017-01-19T08:46:50.000Z</time>
    </trkpt>
    <trkpt lat="43.271101" lon="-1.484762">
      <ele>293</ele>
      <time>2017-01-19T08:47:29.000Z</time>
    </trkpt>
    <trkpt lat="43.271024" lon="-1.484511">
      <ele>297</ele>
      <time>2017-01-19T08:47:52.000Z</time>
    </trkpt>
    <trkpt lat="43.270969" lon="-1.484304">
      <ele>301</ele>
      <time>2017-01-19T08:48:11.000Z</time>
    </trkpt>
    <trkpt lat="43.270896" lon="-1.483842">
      <ele>310</ele>
      <time>2017-01-19T08:48:51.000Z</time>
    </trkpt>
    <trkpt lat="43.270866" lon="-1.483743">
      <ele>312</ele>
      <time>2017-01-19T08:49:35.000Z</time>
    </trkpt>
    <trkpt lat="43.270779" lon="-1.483417">
      <ele>317</ele>
      <time>2017-01-19T08:51:55.000Z</time>
    </trkpt>
    <trkpt lat="43.270734" lon="-1.483196">
      <ele>320</ele>
      <time>2017-01-19T08:52:26.000Z</time>
    </trkpt>
    <trkpt lat="43.270678" lon="-1.48294">
      <ele>325</ele>
      <time>2017-01-19T08:52:59.000Z</time>
    </trkpt>
    <trkpt lat="43.270637" lon="-1.482682">
      <ele>331</ele>
      <time>2017-01-19T08:53:31.000Z</time>
    </trkpt>
    <trkpt lat="43.270618" lon="-1.482547">
      <ele>334</ele>
      <time>2017-01-19T08:53:49.000Z</time>
    </trkpt>
    <trkpt lat="43.270597" lon="-1.482264">
      <ele>344</ele>
      <time>2017-01-19T08:54:22.000Z</time>
    </trkpt>
    <trkpt lat="43.270584" lon="-1.482112">
      <ele>348</ele>
      <time>2017-01-19T08:55:00.000Z</time>
    </trkpt>
    <trkpt lat="43.270516" lon="-1.481918">
      <ele>352</ele>
      <time>2017-01-19T08:55:54.000Z</time>
    </trkpt>
    <trkpt lat="43.270211" lon="-1.481954">
      <ele>350</ele>
      <time>2017-01-19T08:56:29.000Z</time>
    </trkpt>
    <trkpt lat="43.269928" lon="-1.481575">
      <ele>352</ele>
      <time>2017-01-19T08:57:23.000Z</time>
    </trkpt>
    <trkpt lat="43.26988" lon="-1.48131">
      <ele>357</ele>
      <time>2017-01-19T08:57:46.000Z</time>
    </trkpt>
    <trkpt lat="43.26985" lon="-1.481153">
      <ele>359</ele>
      <time>2017-01-19T08:58:02.000Z</time>
    </trkpt>
    <trkpt lat="43.269808" lon="-1.480915">
      <ele>362</ele>
      <time>2017-01-19T08:58:23.000Z</time>
    </trkpt>
    <trkpt lat="43.269715" lon="-1.480587">
      <ele>366</ele>
      <time>2017-01-19T08:58:57.000Z</time>
    </trkpt>
    <trkpt lat="43.269664" lon="-1.480393">
      <ele>370</ele>
      <time>2017-01-19T08:59:18.000Z</time>
    </trkpt>
    <trkpt lat="43.269582" lon="-1.479999">
      <ele>377</ele>
      <time>2017-01-19T08:59:53.000Z</time>
    </trkpt>
    <trkpt lat="43.269532" lon="-1.479691">
      <ele>382</ele>
      <time>2017-01-19T09:00:24.000Z</time>
    </trkpt>
    <trkpt lat="43.269448" lon="-1.479313">
      <ele>386</ele>
      <time>2017-01-19T09:01:03.000Z</time>
    </trkpt>
    <trkpt lat="43.269398" lon="-1.479114">
      <ele>388</ele>
      <time>2017-01-19T09:01:22.000Z</time>
    </trkpt>
    <trkpt lat="43.269286" lon="-1.478707">
      <ele>395</ele>
      <time>2017-01-19T09:02:00.000Z</time>
    </trkpt>
    <trkpt lat="43.269242" lon="-1.47855">
      <ele>400</ele>
      <time>2017-01-19T09:02:18.000Z</time>
    </trkpt>
    <trkpt lat="43.269148" lon="-1.478263">
      <ele>407</ele>
      <time>2017-01-19T09:02:55.000Z</time>
    </trkpt>
    <trkpt lat="43.269074" lon="-1.477933">
      <ele>413</ele>
      <time>2017-01-19T09:03:28.000Z</time>
    </trkpt>
    <trkpt lat="43.269037" lon="-1.477783">
      <ele>415</ele>
      <time>2017-01-19T09:03:42.000Z</time>
    </trkpt>
    <trkpt lat="43.269112" lon="-1.477506">
      <ele>420</ele>
      <time>2017-01-19T09:04:12.000Z</time>
    </trkpt>
    <trkpt lat="43.269181" lon="-1.477349">
      <ele>425</ele>
      <time>2017-01-19T09:04:28.000Z</time>
    </trkpt>
    <trkpt lat="43.269215" lon="-1.477219">
      <ele>427</ele>
      <time>2017-01-19T09:04:44.000Z</time>
    </trkpt>
    <trkpt lat="43.269297" lon="-1.477025">
      <ele>432</ele>
      <time>2017-01-19T09:05:22.000Z</time>
    </trkpt>
    <trkpt lat="43.26947" lon="-1.476725">
      <ele>439</ele>
      <time>2017-01-19T09:07:07.000Z</time>
    </trkpt>
    <trkpt lat="43.269519" lon="-1.47642">
      <ele>445</ele>
      <time>2017-01-19T09:07:40.000Z</time>
    </trkpt>
    <trkpt lat="43.269624" lon="-1.476129">
      <ele>453</ele>
      <time>2017-01-19T09:08:13.000Z</time>
    </trkpt>
    <trkpt lat="43.269742" lon="-1.475865">
      <ele>461</ele>
      <time>2017-01-19T09:08:47.000Z</time>
    </trkpt>
    <trkpt lat="43.269897" lon="-1.475574">
      <ele>467</ele>
      <time>2017-01-19T09:09:21.000Z</time>
    </trkpt>
    <trkpt lat="43.270072" lon="-1.475549">
      <ele>468</ele>
      <time>2017-01-19T09:09:45.000Z</time>
    </trkpt>
    <trkpt lat="43.270203" lon="-1.475315">
      <ele>471</ele>
      <time>2017-01-19T09:10:23.000Z</time>
    </trkpt>
    <trkpt lat="43.270159" lon="-1.475113">
      <ele>474</ele>
      <time>2017-01-19T09:10:42.000Z</time>
    </trkpt>
    <trkpt lat="43.270068" lon="-1.474697">
      <ele>481</ele>
      <time>2017-01-19T09:11:17.000Z</time>
    </trkpt>
    <trkpt lat="43.270034" lon="-1.474507">
      <ele>482</ele>
      <time>2017-01-19T09:11:37.000Z</time>
    </trkpt>
    <trkpt lat="43.269924" lon="-1.47393">
      <ele>486</ele>
      <time>2017-01-19T09:12:35.000Z</time>
    </trkpt>
    <trkpt lat="43.269688" lon="-1.473367">
      <ele>490</ele>
      <time>2017-01-19T09:13:37.000Z</time>
    </trkpt>
    <trkpt lat="43.269605" lon="-1.473144">
      <ele>490</ele>
      <time>2017-01-19T09:14:26.000Z</time>
    </trkpt>
    <trkpt lat="43.269519" lon="-1.472993">
      <ele>490</ele>
      <time>2017-01-19T09:19:10.000Z</time>
    </trkpt>
    <trkpt lat="43.269443" lon="-1.472909">
      <ele>490</ele>
      <time>2017-01-19T09:20:37.000Z</time>
    </trkpt>
    <trkpt lat="43.269131" lon="-1.472682">
      <ele>491</ele>
      <time>2017-01-19T09:21:19.000Z</time>
    </trkpt>
    <trkpt lat="43.268931" lon="-1.472484">
      <ele>494</ele>
      <time>2017-01-19T09:21:54.000Z</time>
    </trkpt>
    <trkpt lat="43.268742" lon="-1.472147">
      <ele>501</ele>
      <time>2017-01-19T09:22:27.000Z</time>
    </trkpt>
    <trkpt lat="43.26853" lon="-1.471781">
      <ele>506</ele>
      <time>2017-01-19T09:23:01.000Z</time>
    </trkpt>
    <trkpt lat="43.268236" lon="-1.471327">
      <ele>506</ele>
      <time>2017-01-19T09:23:42.000Z</time>
    </trkpt>
    <trkpt lat="43.26787" lon="-1.470649">
      <ele>509</ele>
      <time>2017-01-19T09:24:36.000Z</time>
    </trkpt>
    <trkpt lat="43.26767" lon="-1.470032">
      <ele>517</ele>
      <time>2017-01-19T09:25:32.000Z</time>
    </trkpt>
    <trkpt lat="43.267514" lon="-1.469688">
      <ele>520</ele>
      <time>2017-01-19T09:25:37.000Z</time>
    </trkpt>
    <trkpt lat="43.267217" lon="-1.469172">
      <ele>518</ele>
      <time>2017-01-19T09:26:34.000Z</time>
    </trkpt>
    <trkpt lat="43.267014" lon="-1.468733">
      <ele>521</ele>
      <time>2017-01-19T09:27:10.000Z</time>
    </trkpt>
    <trkpt lat="43.266803" lon="-1.468316">
      <ele>526</ele>
      <time>2017-01-19T09:27:46.000Z</time>
    </trkpt>
    <trkpt lat="43.266638" lon="-1.467925">
      <ele>527</ele>
      <time>2017-01-19T09:28:25.000Z</time>
    </trkpt>
    <trkpt lat="43.266498" lon="-1.467596">
      <ele>531</ele>
      <time>2017-01-19T09:29:01.000Z</time>
    </trkpt>
    <trkpt lat="43.266381" lon="-1.467339">
      <ele>535</ele>
      <time>2017-01-19T09:29:34.000Z</time>
    </trkpt>
    <trkpt lat="43.266217" lon="-1.466942">
      <ele>543</ele>
      <time>2017-01-19T09:30:07.000Z</time>
    </trkpt>
    <trkpt lat="43.266013" lon="-1.466615">
      <ele>546</ele>
      <time>2017-01-19T09:30:43.000Z</time>
    </trkpt>
    <trkpt lat="43.265954" lon="-1.466338">
      <ele>547</ele>
      <time>2017-01-19T09:31:34.000Z</time>
    </trkpt>
    <trkpt lat="43.265908" lon="-1.465954">
      <ele>552</ele>
      <time>2017-01-19T09:31:58.000Z</time>
    </trkpt>
    <trkpt lat="43.265862" lon="-1.465718">
      <ele>556</ele>
      <time>2017-01-19T09:32:14.000Z</time>
    </trkpt>
    <trkpt lat="43.265805" lon="-1.465313">
      <ele>561</ele>
      <time>2017-01-19T09:32:48.000Z</time>
    </trkpt>
    <trkpt lat="43.265728" lon="-1.464902">
      <ele>563</ele>
      <time>2017-01-19T09:33:21.000Z</time>
    </trkpt>
    <trkpt lat="43.265661" lon="-1.464557">
      <ele>568</ele>
      <time>2017-01-19T09:33:54.000Z</time>
    </trkpt>
    <trkpt lat="43.265565" lon="-1.464261">
      <ele>575</ele>
      <time>2017-01-19T09:34:28.000Z</time>
    </trkpt>
    <trkpt lat="43.265481" lon="-1.463942">
      <ele>582</ele>
      <time>2017-01-19T09:35:04.000Z</time>
    </trkpt>
    <trkpt lat="43.265401" lon="-1.463606">
      <ele>589</ele>
      <time>2017-01-19T09:35:38.000Z</time>
    </trkpt>
    <trkpt lat="43.265287" lon="-1.463262">
      <ele>593</ele>
      <time>2017-01-19T09:36:14.000Z</time>
    </trkpt>
    <trkpt lat="43.265194" lon="-1.463041">
      <ele>594</ele>
      <time>2017-01-19T09:36:44.000Z</time>
    </trkpt>
    <trkpt lat="43.265112" lon="-1.462949">
      <ele>593</ele>
      <time>2017-01-19T09:37:55.000Z</time>
    </trkpt>
    <trkpt lat="43.264809" lon="-1.462511">
      <ele>593</ele>
      <time>2017-01-19T09:38:46.000Z</time>
    </trkpt>
    <trkpt lat="43.264615" lon="-1.462071">
      <ele>594</ele>
      <time>2017-01-19T09:39:39.000Z</time>
    </trkpt>
    <trkpt lat="43.264442" lon="-1.461681">
      <ele>598</ele>
      <time>2017-01-19T09:39:55.000Z</time>
    </trkpt>
    <trkpt lat="43.264291" lon="-1.461311">
      <ele>599</ele>
      <time>2017-01-19T09:40:29.000Z</time>
    </trkpt>
    <trkpt lat="43.264024" lon="-1.460977">
      <ele>607</ele>
      <time>2017-01-19T09:41:05.000Z</time>
    </trkpt>
    <trkpt lat="43.263933" lon="-1.460777">
      <ele>612</ele>
      <time>2017-01-19T09:41:23.000Z</time>
    </trkpt>
    <trkpt lat="43.263836" lon="-1.460572">
      <ele>615</ele>
      <time>2017-01-19T09:41:41.000Z</time>
    </trkpt>
    <trkpt lat="43.263645" lon="-1.460156">
      <ele>617</ele>
      <time>2017-01-19T09:42:18.000Z</time>
    </trkpt>
    <trkpt lat="43.263548" lon="-1.459927">
      <ele>620</ele>
      <time>2017-01-19T09:42:37.000Z</time>
    </trkpt>
    <trkpt lat="43.26334" lon="-1.459619">
      <ele>623</ele>
      <time>2017-01-19T09:43:09.000Z</time>
    </trkpt>
    <trkpt lat="43.263127" lon="-1.459302">
      <ele>631</ele>
      <time>2017-01-19T09:43:45.000Z</time>
    </trkpt>
    <trkpt lat="43.262953" lon="-1.459008">
      <ele>641</ele>
      <time>2017-01-19T09:44:19.000Z</time>
    </trkpt>
    <trkpt lat="43.262794" lon="-1.458755">
      <ele>649</ele>
      <time>2017-01-19T09:44:50.000Z</time>
    </trkpt>
    <trkpt lat="43.262699" lon="-1.45849">
      <ele>652</ele>
      <time>2017-01-19T09:45:19.000Z</time>
    </trkpt>
    <trkpt lat="43.262621" lon="-1.458115">
      <ele>655</ele>
      <time>2017-01-19T09:45:53.000Z</time>
    </trkpt>
    <trkpt lat="43.262364" lon="-1.457744">
      <ele>658</ele>
      <time>2017-01-19T09:46:29.000Z</time>
    </trkpt>
    <trkpt lat="43.262178" lon="-1.457391">
      <ele>660</ele>
      <time>2017-01-19T09:47:04.000Z</time>
    </trkpt>
    <trkpt lat="43.262037" lon="-1.457104">
      <ele>664</ele>
      <time>2017-01-19T09:47:36.000Z</time>
    </trkpt>
    <trkpt lat="43.261923" lon="-1.456817">
      <ele>669</ele>
      <time>2017-01-19T09:48:09.000Z</time>
    </trkpt>
    <trkpt lat="43.261728" lon="-1.456505">
      <ele>680</ele>
      <time>2017-01-19T09:52:57.000Z</time>
    </trkpt>
    <trkpt lat="43.261635" lon="-1.45637">
      <ele>684</ele>
      <time>2017-01-19T09:53:26.000Z</time>
    </trkpt>
    <trkpt lat="43.261515" lon="-1.456198">
      <ele>689</ele>
      <time>2017-01-19T09:53:53.000Z</time>
    </trkpt>
    <trkpt lat="43.261398" lon="-1.45596">
      <ele>697</ele>
      <time>2017-01-19T09:54:36.000Z</time>
    </trkpt>
    <trkpt lat="43.261295" lon="-1.455784">
      <ele>705</ele>
      <time>2017-01-19T09:55:05.000Z</time>
    </trkpt>
    <trkpt lat="43.261204" lon="-1.455594">
      <ele>713</ele>
      <time>2017-01-19T09:55:33.000Z</time>
    </trkpt>
    <trkpt lat="43.261156" lon="-1.455503">
      <ele>717</ele>
      <time>2017-01-19T09:55:49.000Z</time>
    </trkpt>
    <trkpt lat="43.261063" lon="-1.455273">
      <ele>726</ele>
      <time>2017-01-19T09:56:29.000Z</time>
    </trkpt>
    <trkpt lat="43.260949" lon="-1.455173">
      <ele>731</ele>
      <time>2017-01-19T09:57:01.000Z</time>
    </trkpt>
    <trkpt lat="43.260804" lon="-1.455012">
      <ele>741</ele>
      <time>2017-01-19T09:57:45.000Z</time>
    </trkpt>
    <trkpt lat="43.260718" lon="-1.454903">
      <ele>743</ele>
      <time>2017-01-19T09:58:13.000Z</time>
    </trkpt>
    <trkpt lat="43.260657" lon="-1.45476">
      <ele>745</ele>
      <time>2017-01-19T09:58:46.000Z</time>
    </trkpt>
    <trkpt lat="43.2605" lon="-1.454562">
      <ele>748</ele>
      <time>2017-01-19T09:59:33.000Z</time>
    </trkpt>
    <trkpt lat="43.260373" lon="-1.454433">
      <ele>753</ele>
      <time>2017-01-19T10:00:04.000Z</time>
    </trkpt>
    <trkpt lat="43.260278" lon="-1.454298">
      <ele>760</ele>
      <time>2017-01-19T10:00:36.000Z</time>
    </trkpt>
    <trkpt lat="43.260111" lon="-1.454191">
      <ele>768</ele>
      <time>2017-01-19T10:01:06.000Z</time>
    </trkpt>
    <trkpt lat="43.259929" lon="-1.454043">
      <ele>779</ele>
      <time>2017-01-19T10:01:36.000Z</time>
    </trkpt>
    <trkpt lat="43.259412" lon="-1.454067">
      <ele>785</ele>
      <time>2017-01-19T10:08:14.000Z</time>
    </trkpt>
    <trkpt lat="43.259193" lon="-1.454109">
      <ele>787</ele>
      <time>2017-01-19T10:08:28.000Z</time>
    </trkpt>
    <trkpt lat="43.258594" lon="-1.454276">
      <ele>783</ele>
      <time>2017-01-19T10:09:24.000Z</time>
    </trkpt>
    <trkpt lat="43.258245" lon="-1.454316">
      <ele>779</ele>
      <time>2017-01-19T10:09:55.000Z</time>
    </trkpt>
    <trkpt lat="43.25821" lon="-1.454329">
      <ele>779</ele>
      <time>2017-01-19T10:09:58.000Z</time>
    </trkpt>
    <trkpt lat="43.257909" lon="-1.454301">
      <ele>774</ele>
      <time>2017-01-19T10:10:38.000Z</time>
    </trkpt>
    <trkpt lat="43.257739" lon="-1.454414">
      <ele>770</ele>
      <time>2017-01-19T10:11:33.000Z</time>
    </trkpt>
    <trkpt lat="43.257682" lon="-1.454335">
      <ele>769</ele>
      <time>2017-01-19T10:12:20.000Z</time>
    </trkpt>
    <trkpt lat="43.257654" lon="-1.454586">
      <ele>768</ele>
      <time>2017-01-19T10:15:09.000Z</time>
    </trkpt>
    <trkpt lat="43.257655" lon="-1.454874">
      <ele>764</ele>
      <time>2017-01-19T10:15:30.000Z</time>
    </trkpt>
    <trkpt lat="43.257642" lon="-1.455055">
      <ele>760</ele>
      <time>2017-01-19T10:15:42.000Z</time>
    </trkpt>
    <trkpt lat="43.25757" lon="-1.455467">
      <ele>749</ele>
      <time>2017-01-19T10:16:12.000Z</time>
    </trkpt>
    <trkpt lat="43.257521" lon="-1.455644">
      <ele>746</ele>
      <time>2017-01-19T10:16:27.000Z</time>
    </trkpt>
    <trkpt lat="43.257495" lon="-1.455788">
      <ele>743</ele>
      <time>2017-01-19T10:16:40.000Z</time>
    </trkpt>
    <trkpt lat="43.257456" lon="-1.45595">
      <ele>741</ele>
      <time>2017-01-19T10:16:54.000Z</time>
    </trkpt>
    <trkpt lat="43.257434" lon="-1.456114">
      <ele>739</ele>
      <time>2017-01-19T10:17:06.000Z</time>
    </trkpt>
    <trkpt lat="43.257389" lon="-1.456286">
      <ele>735</ele>
      <time>2017-01-19T10:17:19.000Z</time>
    </trkpt>
    <trkpt lat="43.25735" lon="-1.456466">
      <ele>731</ele>
      <time>2017-01-19T10:17:32.000Z</time>
    </trkpt>
    <trkpt lat="43.257282" lon="-1.45658">
      <ele>727</ele>
      <time>2017-01-19T10:17:42.000Z</time>
    </trkpt>
    <trkpt lat="43.257193" lon="-1.456745">
      <ele>722</ele>
      <time>2017-01-19T10:18:00.000Z</time>
    </trkpt>
    <trkpt lat="43.257098" lon="-1.456979">
      <ele>717</ele>
      <time>2017-01-19T10:18:20.000Z</time>
    </trkpt>
    <trkpt lat="43.257023" lon="-1.457122">
      <ele>713</ele>
      <time>2017-01-19T10:18:33.000Z</time>
    </trkpt>
    <trkpt lat="43.25695" lon="-1.45722">
      <ele>711</ele>
      <time>2017-01-19T10:18:42.000Z</time>
    </trkpt>
    <trkpt lat="43.256868" lon="-1.457366">
      <ele>709</ele>
      <time>2017-01-19T10:18:55.000Z</time>
    </trkpt>
    <trkpt lat="43.25675" lon="-1.457599">
      <ele>704</ele>
      <time>2017-01-19T10:19:18.000Z</time>
    </trkpt>
    <trkpt lat="43.256677" lon="-1.457788">
      <ele>699</ele>
      <time>2017-01-19T10:19:34.000Z</time>
    </trkpt>
    <trkpt lat="43.25664" lon="-1.457905">
      <ele>696</ele>
      <time>2017-01-19T10:19:44.000Z</time>
    </trkpt>
    <trkpt lat="43.256534" lon="-1.458117">
      <ele>690</ele>
      <time>2017-01-19T10:20:02.000Z</time>
    </trkpt>
    <trkpt lat="43.25642" lon="-1.45832">
      <ele>685</ele>
      <time>2017-01-19T10:20:18.000Z</time>
    </trkpt>
    <trkpt lat="43.256291" lon="-1.458564">
      <ele>681</ele>
      <time>2017-01-19T10:20:37.000Z</time>
    </trkpt>
    <trkpt lat="43.256143" lon="-1.45876">
      <ele>677</ele>
      <time>2017-01-19T10:20:53.000Z</time>
    </trkpt>
    <trkpt lat="43.255643" lon="-1.459268">
      <ele>674</ele>
      <time>2017-01-19T10:21:45.000Z</time>
    </trkpt>
    <trkpt lat="43.255496" lon="-1.459382">
      <ele>676</ele>
      <time>2017-01-19T10:22:03.000Z</time>
    </trkpt>
    <trkpt lat="43.255254" lon="-1.459437">
      <ele>676</ele>
      <time>2017-01-19T10:22:40.000Z</time>
    </trkpt>
    <trkpt lat="43.254559" lon="-1.459553">
      <ele>677</ele>
      <time>2017-01-19T10:23:41.000Z</time>
    </trkpt>
    <trkpt lat="43.254154" lon="-1.460209">
      <ele>677</ele>
      <time>2017-01-19T10:24:37.000Z</time>
    </trkpt>
    <trkpt lat="43.253975" lon="-1.460591">
      <ele>676</ele>
      <time>2017-01-19T10:25:15.000Z</time>
    </trkpt>
    <trkpt lat="43.253834" lon="-1.460839">
      <ele>676</ele>
      <time>2017-01-19T10:25:38.000Z</time>
    </trkpt>
    <trkpt lat="43.253638" lon="-1.461081">
      <ele>672</ele>
      <time>2017-01-19T10:25:59.000Z</time>
    </trkpt>
    <trkpt lat="43.253107" lon="-1.461492">
      <ele>665</ele>
      <time>2017-01-19T10:26:49.000Z</time>
    </trkpt>
    <trkpt lat="43.252974" lon="-1.461495">
      <ele>664</ele>
      <time>2017-01-19T10:27:11.000Z</time>
    </trkpt>
    <trkpt lat="43.252682" lon="-1.461488">
      <ele>666</ele>
      <time>2017-01-19T10:27:40.000Z</time>
    </trkpt>
    <trkpt lat="43.252507" lon="-1.461387">
      <ele>669</ele>
      <time>2017-01-19T10:28:00.000Z</time>
    </trkpt>
    <trkpt lat="43.252184" lon="-1.461233">
      <ele>676</ele>
      <time>2017-01-19T10:28:47.000Z</time>
    </trkpt>
    <trkpt lat="43.251876" lon="-1.461146">
      <ele>688</ele>
      <time>2017-01-19T10:29:22.000Z</time>
    </trkpt>
    <trkpt lat="43.251721" lon="-1.461105">
      <ele>692</ele>
      <time>2017-01-19T10:29:39.000Z</time>
    </trkpt>
    <trkpt lat="43.251476" lon="-1.461045">
      <ele>695</ele>
      <time>2017-01-19T10:30:09.000Z</time>
    </trkpt>
    <trkpt lat="43.25125" lon="-1.46096">
      <ele>697</ele>
      <time>2017-01-19T10:30:38.000Z</time>
    </trkpt>
    <trkpt lat="43.251058" lon="-1.460922">
      <ele>698</ele>
      <time>2017-01-19T10:31:00.000Z</time>
    </trkpt>
    <trkpt lat="43.250739" lon="-1.461105">
      <ele>700</ele>
      <time>2017-01-19T10:31:38.000Z</time>
    </trkpt>
    <trkpt lat="43.25066" lon="-1.461255">
      <ele>700</ele>
      <time>2017-01-19T10:31:53.000Z</time>
    </trkpt>
    <trkpt lat="43.250435" lon="-1.461302">
      <ele>699</ele>
      <time>2017-01-19T10:32:31.000Z</time>
    </trkpt>
    <trkpt lat="43.250022" lon="-1.46139">
      <ele>691</ele>
      <time>2017-01-19T10:33:07.000Z</time>
    </trkpt>
    <trkpt lat="43.249853" lon="-1.461421">
      <ele>687</ele>
      <time>2017-01-19T10:33:22.000Z</time>
    </trkpt>
    <trkpt lat="43.249722" lon="-1.461471">
      <ele>684</ele>
      <time>2017-01-19T10:33:34.000Z</time>
    </trkpt>
    <trkpt lat="43.249435" lon="-1.46155">
      <ele>680</ele>
      <time>2017-01-19T10:34:01.000Z</time>
    </trkpt>
    <trkpt lat="43.249353" lon="-1.461564">
      <ele>680</ele>
      <time>2017-01-19T10:34:08.000Z</time>
    </trkpt>
    <trkpt lat="43.248566" lon="-1.461726">
      <ele>677</ele>
      <time>2017-01-19T10:35:22.000Z</time>
    </trkpt>
    <trkpt lat="43.248199" lon="-1.46159">
      <ele>675</ele>
      <time>2017-01-19T10:35:59.000Z</time>
    </trkpt>
    <trkpt lat="43.248014" lon="-1.461533">
      <ele>676</ele>
      <time>2017-01-19T10:36:28.000Z</time>
    </trkpt>
    <trkpt lat="43.247824" lon="-1.461277">
      <ele>682</ele>
      <time>2017-01-19T10:38:00.000Z</time>
    </trkpt>
    <trkpt lat="43.247811" lon="-1.46105">
      <ele>688</ele>
      <time>2017-01-19T10:38:43.000Z</time>
    </trkpt>
    <trkpt lat="43.247693" lon="-1.460836">
      <ele>692</ele>
      <time>2017-01-19T10:39:13.000Z</time>
    </trkpt>
    <trkpt lat="43.247584" lon="-1.460644">
      <ele>698</ele>
      <time>2017-01-19T10:39:40.000Z</time>
    </trkpt>
    <trkpt lat="43.2475" lon="-1.460439">
      <ele>705</ele>
      <time>2017-01-19T10:40:08.000Z</time>
    </trkpt>
    <trkpt lat="43.24733" lon="-1.460255">
      <ele>712</ele>
      <time>2017-01-19T10:40:44.000Z</time>
    </trkpt>
    <trkpt lat="43.24722" lon="-1.460072">
      <ele>717</ele>
      <time>2017-01-19T10:41:11.000Z</time>
    </trkpt>
    <trkpt lat="43.247122" lon="-1.459977">
      <ele>718</ele>
      <time>2017-01-19T10:41:26.000Z</time>
    </trkpt>
    <trkpt lat="43.246926" lon="-1.459772">
      <ele>722</ele>
      <time>2017-01-19T10:41:56.000Z</time>
    </trkpt>
    <trkpt lat="43.246804" lon="-1.459668">
      <ele>727</ele>
      <time>2017-01-19T10:42:12.000Z</time>
    </trkpt>
    <trkpt lat="43.246701" lon="-1.459588">
      <ele>731</ele>
      <time>2017-01-19T10:42:27.000Z</time>
    </trkpt>
    <trkpt lat="43.246599" lon="-1.459418">
      <ele>738</ele>
      <time>2017-01-19T10:42:53.000Z</time>
    </trkpt>
    <trkpt lat="43.246492" lon="-1.459177">
      <ele>746</ele>
      <time>2017-01-19T10:43:23.000Z</time>
    </trkpt>
    <trkpt lat="43.246411" lon="-1.459006">
      <ele>750</ele>
      <time>2017-01-19T10:43:49.000Z</time>
    </trkpt>
    <trkpt lat="43.246385" lon="-1.458827">
      <ele>754</ele>
      <time>2017-01-19T10:44:18.000Z</time>
    </trkpt>
    <trkpt lat="43.2464" lon="-1.458587">
      <ele>759</ele>
      <time>2017-01-19T10:44:47.000Z</time>
    </trkpt>
    <trkpt lat="43.246429" lon="-1.458342">
      <ele>767</ele>
      <time>2017-01-19T10:45:16.000Z</time>
    </trkpt>
    <trkpt lat="43.246497" lon="-1.458087">
      <ele>772</ele>
      <time>2017-01-19T10:45:47.000Z</time>
    </trkpt>
    <trkpt lat="43.246469" lon="-1.457843">
      <ele>779</ele>
      <time>2017-01-19T10:46:16.000Z</time>
    </trkpt>
    <trkpt lat="43.246447" lon="-1.457622">
      <ele>784</ele>
      <time>2017-01-19T10:46:45.000Z</time>
    </trkpt>
    <trkpt lat="43.246545" lon="-1.457355">
      <ele>788</ele>
      <time>2017-01-19T10:47:15.000Z</time>
    </trkpt>
    <trkpt lat="43.24664" lon="-1.457091">
      <ele>790</ele>
      <time>2017-01-19T10:47:43.000Z</time>
    </trkpt>
    <trkpt lat="43.246684" lon="-1.456814">
      <ele>793</ele>
      <time>2017-01-19T10:48:10.000Z</time>
    </trkpt>
    <trkpt lat="43.246752" lon="-1.456507">
      <ele>797</ele>
      <time>2017-01-19T10:48:39.000Z</time>
    </trkpt>
    <trkpt lat="43.246816" lon="-1.456191">
      <ele>797</ele>
      <time>2017-01-19T10:49:10.000Z</time>
    </trkpt>
    <trkpt lat="43.246531" lon="-1.456469">
      <ele>795</ele>
      <time>2017-01-19T10:56:02.000Z</time>
    </trkpt>
    <trkpt lat="43.24646" lon="-1.456605">
      <ele>794</ele>
      <time>2017-01-19T10:56:13.000Z</time>
    </trkpt>
    <trkpt lat="43.24623" lon="-1.457057">
      <ele>792</ele>
      <time>2017-01-19T10:56:45.000Z</time>
    </trkpt>
    <trkpt lat="43.245964" lon="-1.457508">
      <ele>786</ele>
      <time>2017-01-19T10:57:19.000Z</time>
    </trkpt>
    <trkpt lat="43.245936" lon="-1.45758">
      <ele>785</ele>
      <time>2017-01-19T10:57:25.000Z</time>
    </trkpt>
    <trkpt lat="43.245785" lon="-1.457923">
      <ele>782</ele>
      <time>2017-01-19T10:57:50.000Z</time>
    </trkpt>
    <trkpt lat="43.245505" lon="-1.458322">
      <ele>781</ele>
      <time>2017-01-19T10:58:22.000Z</time>
    </trkpt>
    <trkpt lat="43.24535" lon="-1.458538">
      <ele>781</ele>
      <time>2017-01-19T10:58:41.000Z</time>
    </trkpt>
    <trkpt lat="43.245119" lon="-1.458766">
      <ele>784</ele>
      <time>2017-01-19T10:59:12.000Z</time>
    </trkpt>
    <trkpt lat="43.244951" lon="-1.458926">
      <ele>786</ele>
      <time>2017-01-19T11:01:27.000Z</time>
    </trkpt>
    <trkpt lat="43.24487" lon="-1.458998">
      <ele>787</ele>
      <time>2017-01-19T11:01:41.000Z</time>
    </trkpt>
    <trkpt lat="43.244652" lon="-1.459303">
      <ele>786</ele>
      <time>2017-01-19T11:02:16.000Z</time>
    </trkpt>
    <trkpt lat="43.244494" lon="-1.459517">
      <ele>783</ele>
      <time>2017-01-19T11:02:57.000Z</time>
    </trkpt>
    <trkpt lat="43.244291" lon="-1.459464">
      <ele>781</ele>
      <time>2017-01-19T11:03:21.000Z</time>
    </trkpt>
    <trkpt lat="43.244205" lon="-1.459356">
      <ele>779</ele>
      <time>2017-01-19T11:03:34.000Z</time>
    </trkpt>
    <trkpt lat="43.244067" lon="-1.459424">
      <ele>776</ele>
      <time>2017-01-19T11:54:00.000Z</time>
    </trkpt>
    <trkpt lat="43.244011" lon="-1.459726">
      <ele>774</ele>
      <time>2017-01-19T11:54:44.000Z</time>
    </trkpt>
    <trkpt lat="43.244016" lon="-1.45995">
      <ele>773</ele>
      <time>2017-01-19T11:55:02.000Z</time>
    </trkpt>
    <trkpt lat="43.243967" lon="-1.460118">
      <ele>769</ele>
      <time>2017-01-19T11:55:14.000Z</time>
    </trkpt>
    <trkpt lat="43.24387" lon="-1.460396">
      <ele>759</ele>
      <time>2017-01-19T11:55:33.000Z</time>
    </trkpt>
    <trkpt lat="43.243796" lon="-1.460723">
      <ele>750</ele>
      <time>2017-01-19T11:55:56.000Z</time>
    </trkpt>
    <trkpt lat="43.243726" lon="-1.460886">
      <ele>746</ele>
      <time>2017-01-19T11:56:11.000Z</time>
    </trkpt>
    <trkpt lat="43.243677" lon="-1.460986">
      <ele>743</ele>
      <time>2017-01-19T11:56:19.000Z</time>
    </trkpt>
    <trkpt lat="43.243581" lon="-1.461204">
      <ele>739</ele>
      <time>2017-01-19T11:56:40.000Z</time>
    </trkpt>
    <trkpt lat="43.24342" lon="-1.461416">
      <ele>734</ele>
      <time>2017-01-19T11:57:03.000Z</time>
    </trkpt>
    <trkpt lat="43.243236" lon="-1.461678">
      <ele>726</ele>
      <time>2017-01-19T11:57:32.000Z</time>
    </trkpt>
    <trkpt lat="43.243075" lon="-1.461992">
      <ele>723</ele>
      <time>2017-01-19T11:57:58.000Z</time>
    </trkpt>
    <trkpt lat="43.242949" lon="-1.462196">
      <ele>721</ele>
      <time>2017-01-19T11:58:48.000Z</time>
    </trkpt>
    <trkpt lat="43.242789" lon="-1.46259">
      <ele>718</ele>
      <time>2017-01-19T11:59:16.000Z</time>
    </trkpt>
    <trkpt lat="43.242759" lon="-1.462665">
      <ele>717</ele>
      <time>2017-01-19T11:59:21.000Z</time>
    </trkpt>
    <trkpt lat="43.242656" lon="-1.462967">
      <ele>714</ele>
      <time>2017-01-19T11:59:39.000Z</time>
    </trkpt>
    <trkpt lat="43.242555" lon="-1.46328">
      <ele>711</ele>
      <time>2017-01-19T12:00:00.000Z</time>
    </trkpt>
    <trkpt lat="43.242413" lon="-1.463742">
      <ele>707</ele>
      <time>2017-01-19T12:00:31.000Z</time>
    </trkpt>
    <trkpt lat="43.242307" lon="-1.464188">
      <ele>707</ele>
      <time>2017-01-19T12:01:14.000Z</time>
    </trkpt>
    <trkpt lat="43.242297" lon="-1.464374">
      <ele>709</ele>
      <time>2017-01-19T12:01:35.000Z</time>
    </trkpt>
    <trkpt lat="43.242236" lon="-1.464802">
      <ele>714</ele>
      <time>2017-01-19T12:02:10.000Z</time>
    </trkpt>
    <trkpt lat="43.242115" lon="-1.465146">
      <ele>715</ele>
      <time>2017-01-19T12:02:44.000Z</time>
    </trkpt>
    <trkpt lat="43.242003" lon="-1.465461">
      <ele>721</ele>
      <time>2017-01-19T12:03:16.000Z</time>
    </trkpt>
    <trkpt lat="43.241894" lon="-1.465573">
      <ele>724</ele>
      <time>2017-01-19T12:03:34.000Z</time>
    </trkpt>
    <trkpt lat="43.241674" lon="-1.465771">
      <ele>724</ele>
      <time>2017-01-19T12:04:04.000Z</time>
    </trkpt>
    <trkpt lat="43.241597" lon="-1.465981">
      <ele>722</ele>
      <time>2017-01-19T12:06:00.000Z</time>
    </trkpt>
    <trkpt lat="43.241463" lon="-1.466224">
      <ele>720</ele>
      <time>2017-01-19T12:06:20.000Z</time>
    </trkpt>
    <trkpt lat="43.241314" lon="-1.466519">
      <ele>716</ele>
      <time>2017-01-19T12:06:40.000Z</time>
    </trkpt>
    <trkpt lat="43.240955" lon="-1.467172">
      <ele>714</ele>
      <time>2017-01-19T12:07:19.000Z</time>
    </trkpt>
    <trkpt lat="43.240834" lon="-1.46772">
      <ele>719</ele>
      <time>2017-01-19T12:07:50.000Z</time>
    </trkpt>
    <trkpt lat="43.240751" lon="-1.467939">
      <ele>721</ele>
      <time>2017-01-19T12:08:06.000Z</time>
    </trkpt>
    <trkpt lat="43.240588" lon="-1.468198">
      <ele>721</ele>
      <time>2017-01-19T12:08:30.000Z</time>
    </trkpt>
    <trkpt lat="43.240321" lon="-1.46871">
      <ele>720</ele>
      <time>2017-01-19T12:09:10.000Z</time>
    </trkpt>
    <trkpt lat="43.240271" lon="-1.469069">
      <ele>721</ele>
      <time>2017-01-19T12:09:33.000Z</time>
    </trkpt>
    <trkpt lat="43.240149" lon="-1.470277">
      <ele>719</ele>
      <time>2017-01-19T12:10:55.000Z</time>
    </trkpt>
    <trkpt lat="43.240122" lon="-1.470556">
      <ele>717</ele>
      <time>2017-01-19T12:13:14.000Z</time>
    </trkpt>
    <trkpt lat="43.240134" lon="-1.470861">
      <ele>714</ele>
      <time>2017-01-19T12:13:36.000Z</time>
    </trkpt>
    <trkpt lat="43.240238" lon="-1.471171">
      <ele>711</ele>
      <time>2017-01-19T12:13:58.000Z</time>
    </trkpt>
    <trkpt lat="43.240414" lon="-1.471616">
      <ele>709</ele>
      <time>2017-01-19T12:14:28.000Z</time>
    </trkpt>
    <trkpt lat="43.240516" lon="-1.47185">
      <ele>711</ele>
      <time>2017-01-19T12:14:53.000Z</time>
    </trkpt>
    <trkpt lat="43.240577" lon="-1.472005">
      <ele>712</ele>
      <time>2017-01-19T12:15:06.000Z</time>
    </trkpt>
    <trkpt lat="43.240678" lon="-1.4723">
      <ele>714</ele>
      <time>2017-01-19T12:15:27.000Z</time>
    </trkpt>
    <trkpt lat="43.240829" lon="-1.472766">
      <ele>717</ele>
      <time>2017-01-19T12:16:01.000Z</time>
    </trkpt>
    <trkpt lat="43.240949" lon="-1.473239">
      <ele>711</ele>
      <time>2017-01-19T12:16:31.000Z</time>
    </trkpt>
    <trkpt lat="43.240886" lon="-1.473716">
      <ele>704</ele>
      <time>2017-01-19T12:17:00.000Z</time>
    </trkpt>
    <trkpt lat="43.240913" lon="-1.474109">
      <ele>700</ele>
      <time>2017-01-19T12:17:24.000Z</time>
    </trkpt>
    <trkpt lat="43.240978" lon="-1.474378">
      <ele>697</ele>
      <time>2017-01-19T12:17:41.000Z</time>
    </trkpt>
    <trkpt lat="43.241031" lon="-1.474544">
      <ele>696</ele>
      <time>2017-01-19T12:17:53.000Z</time>
    </trkpt>
    <trkpt lat="43.241059" lon="-1.47474">
      <ele>695</ele>
      <time>2017-01-19T12:18:06.000Z</time>
    </trkpt>
    <trkpt lat="43.241061" lon="-1.475254">
      <ele>687</ele>
      <time>2017-01-19T12:18:36.000Z</time>
    </trkpt>
    <trkpt lat="43.241127" lon="-1.476338">
      <ele>682</ele>
      <time>2017-01-19T12:19:42.000Z</time>
    </trkpt>
    <trkpt lat="43.241034" lon="-1.4767">
      <ele>678</ele>
      <time>2017-01-19T12:20:10.000Z</time>
    </trkpt>
    <trkpt lat="43.241016" lon="-1.476796">
      <ele>678</ele>
      <time>2017-01-19T12:20:15.000Z</time>
    </trkpt>
    <trkpt lat="43.240872" lon="-1.477377">
      <ele>679</ele>
      <time>2017-01-19T12:20:49.000Z</time>
    </trkpt>
    <trkpt lat="43.240658" lon="-1.47798">
      <ele>672</ele>
      <time>2017-01-19T12:21:27.000Z</time>
    </trkpt>
    <trkpt lat="43.240551" lon="-1.478172">
      <ele>669</ele>
      <time>2017-01-19T12:21:41.000Z</time>
    </trkpt>
    <trkpt lat="43.240287" lon="-1.478618">
      <ele>660</ele>
      <time>2017-01-19T12:22:14.000Z</time>
    </trkpt>
    <trkpt lat="43.240018" lon="-1.479096">
      <ele>656</ele>
      <time>2017-01-19T12:22:50.000Z</time>
    </trkpt>
    <trkpt lat="43.239927" lon="-1.479284">
      <ele>653</ele>
      <time>2017-01-19T12:23:04.000Z</time>
    </trkpt>
    <trkpt lat="43.239725" lon="-1.479752">
      <ele>646</ele>
      <time>2017-01-19T12:23:35.000Z</time>
    </trkpt>
    <trkpt lat="43.239698" lon="-1.48">
      <ele>645</ele>
      <time>2017-01-19T12:23:50.000Z</time>
    </trkpt>
    <trkpt lat="43.239576" lon="-1.480234">
      <ele>646</ele>
      <time>2017-01-19T12:24:09.000Z</time>
    </trkpt>
    <trkpt lat="43.239488" lon="-1.480374">
      <ele>648</ele>
      <time>2017-01-19T12:24:45.000Z</time>
    </trkpt>
    <trkpt lat="43.239101" lon="-1.480683">
      <ele>648</ele>
      <time>2017-01-19T12:25:21.000Z</time>
    </trkpt>
    <trkpt lat="43.239027" lon="-1.480779">
      <ele>647</ele>
      <time>2017-01-19T12:25:30.000Z</time>
    </trkpt>
    <trkpt lat="43.238834" lon="-1.481065">
      <ele>642</ele>
      <time>2017-01-19T12:25:56.000Z</time>
    </trkpt>
    <trkpt lat="43.23868" lon="-1.48122">
      <ele>638</ele>
      <time>2017-01-19T12:26:13.000Z</time>
    </trkpt>
    <trkpt lat="43.23855" lon="-1.481476">
      <ele>633</ele>
      <time>2017-01-19T12:26:35.000Z</time>
    </trkpt>
    <trkpt lat="43.238479" lon="-1.481665">
      <ele>630</ele>
      <time>2017-01-19T12:26:50.000Z</time>
    </trkpt>
    <trkpt lat="43.238418" lon="-1.481821">
      <ele>626</ele>
      <time>2017-01-19T12:27:02.000Z</time>
    </trkpt>
    <trkpt lat="43.238411" lon="-1.481994">
      <ele>622</ele>
      <time>2017-01-19T12:27:14.000Z</time>
    </trkpt>
    <trkpt lat="43.238285" lon="-1.482231">
      <ele>618</ele>
      <time>2017-01-19T12:27:32.000Z</time>
    </trkpt>
    <trkpt lat="43.238236" lon="-1.48234">
      <ele>616</ele>
      <time>2017-01-19T12:27:40.000Z</time>
    </trkpt>
    <trkpt lat="43.238198" lon="-1.482568">
      <ele>614</ele>
      <time>2017-01-19T12:27:54.000Z</time>
    </trkpt>
    <trkpt lat="43.238179" lon="-1.482869">
      <ele>609</ele>
      <time>2017-01-19T12:28:16.000Z</time>
    </trkpt>
    <trkpt lat="43.238126" lon="-1.483059">
      <ele>607</ele>
      <time>2017-01-19T12:28:35.000Z</time>
    </trkpt>
    <trkpt lat="43.238022" lon="-1.483219">
      <ele>607</ele>
      <time>2017-01-19T12:28:50.000Z</time>
    </trkpt>
    <trkpt lat="43.238014" lon="-1.48338">
      <ele>606</ele>
      <time>2017-01-19T12:29:01.000Z</time>
    </trkpt>
    <trkpt lat="43.238032" lon="-1.483642">
      <ele>605</ele>
      <time>2017-01-19T12:29:19.000Z</time>
    </trkpt>
    <trkpt lat="43.237848" lon="-1.483777">
      <ele>608</ele>
      <time>2017-01-19T12:36:48.000Z</time>
    </trkpt>
    <trkpt lat="43.237709" lon="-1.484002">
      <ele>612</ele>
      <time>2017-01-19T12:37:16.000Z</time>
    </trkpt>
    <trkpt lat="43.23763" lon="-1.484219">
      <ele>615</ele>
      <time>2017-01-19T12:37:44.000Z</time>
    </trkpt>
    <trkpt lat="43.23749" lon="-1.484386">
      <ele>621</ele>
      <time>2017-01-19T12:38:18.000Z</time>
    </trkpt>
    <trkpt lat="43.237277" lon="-1.484443">
      <ele>624</ele>
      <time>2017-01-19T12:38:46.000Z</time>
    </trkpt>
    <trkpt lat="43.237268" lon="-1.484719">
      <ele>633</ele>
      <time>2017-01-19T12:39:25.000Z</time>
    </trkpt>
    <trkpt lat="43.237192" lon="-1.484999">
      <ele>639</ele>
      <time>2017-01-19T12:40:01.000Z</time>
    </trkpt>
    <trkpt lat="43.237077" lon="-1.485262">
      <ele>643</ele>
      <time>2017-01-19T12:40:29.000Z</time>
    </trkpt>
    <trkpt lat="43.237016" lon="-1.485542">
      <ele>647</ele>
      <time>2017-01-19T12:40:57.000Z</time>
    </trkpt>
    <trkpt lat="43.236873" lon="-1.48603">
      <ele>655</ele>
      <time>2017-01-19T12:41:33.000Z</time>
    </trkpt>
    <trkpt lat="43.236818" lon="-1.486251">
      <ele>657</ele>
      <time>2017-01-19T12:41:50.000Z</time>
    </trkpt>
    <trkpt lat="43.236799" lon="-1.486379">
      <ele>658</ele>
      <time>2017-01-19T12:42:03.000Z</time>
    </trkpt>
    <trkpt lat="43.236721" lon="-1.486677">
      <ele>662</ele>
      <time>2017-01-19T12:42:29.000Z</time>
    </trkpt>
    <trkpt lat="43.236664" lon="-1.486757">
      <ele>665</ele>
      <time>2017-01-19T12:42:40.000Z</time>
    </trkpt>
    <trkpt lat="43.236593" lon="-1.486952">
      <ele>667</ele>
      <time>2017-01-19T12:44:05.000Z</time>
    </trkpt>
    <trkpt lat="43.236558" lon="-1.487212">
      <ele>672</ele>
      <time>2017-01-19T12:44:27.000Z</time>
    </trkpt>
    <trkpt lat="43.236517" lon="-1.487319">
      <ele>674</ele>
      <time>2017-01-19T12:44:39.000Z</time>
    </trkpt>
    <trkpt lat="43.23634" lon="-1.488029">
      <ele>674</ele>
      <time>2017-01-19T12:45:37.000Z</time>
    </trkpt>
    <trkpt lat="43.236333" lon="-1.488156">
      <ele>672</ele>
      <time>2017-01-19T12:45:49.000Z</time>
    </trkpt>
    <trkpt lat="43.236237" lon="-1.488499">
      <ele>668</ele>
      <time>2017-01-19T12:46:18.000Z</time>
    </trkpt>
    <trkpt lat="43.236194" lon="-1.488692">
      <ele>668</ele>
      <time>2017-01-19T12:46:32.000Z</time>
    </trkpt>
    <trkpt lat="43.236101" lon="-1.48908">
      <ele>667</ele>
      <time>2017-01-19T12:47:00.000Z</time>
    </trkpt>
    <trkpt lat="43.236036" lon="-1.489572">
      <ele>661</ele>
      <time>2017-01-19T12:47:32.000Z</time>
    </trkpt>
    <trkpt lat="43.236013" lon="-1.489921">
      <ele>658</ele>
      <time>2017-01-19T12:48:01.000Z</time>
    </trkpt>
    <trkpt lat="43.236044" lon="-1.490066">
      <ele>657</ele>
      <time>2017-01-19T12:48:13.000Z</time>
    </trkpt>
    <trkpt lat="43.2361" lon="-1.490349">
      <ele>655</ele>
      <time>2017-01-19T12:48:29.000Z</time>
    </trkpt>
    <trkpt lat="43.236206" lon="-1.490638">
      <ele>650</ele>
      <time>2017-01-19T12:48:51.000Z</time>
    </trkpt>
    <trkpt lat="43.236249" lon="-1.4908">
      <ele>647</ele>
      <time>2017-01-19T12:49:04.000Z</time>
    </trkpt>
    <trkpt lat="43.236295" lon="-1.490996">
      <ele>644</ele>
      <time>2017-01-19T12:49:24.000Z</time>
    </trkpt>
    <trkpt lat="43.236342" lon="-1.491221">
      <ele>640</ele>
      <time>2017-01-19T12:49:44.000Z</time>
    </trkpt>
    <trkpt lat="43.236354" lon="-1.491458">
      <ele>633</ele>
      <time>2017-01-19T12:50:01.000Z</time>
    </trkpt>
    <trkpt lat="43.236382" lon="-1.49158">
      <ele>628</ele>
      <time>2017-01-19T12:50:10.000Z</time>
    </trkpt>
    <trkpt lat="43.23639" lon="-1.491816">
      <ele>619</ele>
      <time>2017-01-19T12:50:28.000Z</time>
    </trkpt>
    <trkpt lat="43.236439" lon="-1.492072">
      <ele>611</ele>
      <time>2017-01-19T12:50:48.000Z</time>
    </trkpt>
    <trkpt lat="43.236485" lon="-1.492347">
      <ele>606</ele>
      <time>2017-01-19T12:51:12.000Z</time>
    </trkpt>
    <trkpt lat="43.236493" lon="-1.492584">
      <ele>600</ele>
      <time>2017-01-19T12:51:33.000Z</time>
    </trkpt>
    <trkpt lat="43.236496" lon="-1.492749">
      <ele>594</ele>
      <time>2017-01-19T12:51:44.000Z</time>
    </trkpt>
    <trkpt lat="43.236536" lon="-1.493035">
      <ele>586</ele>
      <time>2017-01-19T12:52:06.000Z</time>
    </trkpt>
    <trkpt lat="43.236307" lon="-1.493019">
      <ele>586</ele>
      <time>2017-01-19T12:52:30.000Z</time>
    </trkpt>
    <trkpt lat="43.236121" lon="-1.493097">
      <ele>580</ele>
      <time>2017-01-19T12:52:54.000Z</time>
    </trkpt>
    <trkpt lat="43.236008" lon="-1.49325">
      <ele>573</ele>
      <time>2017-01-19T12:53:39.000Z</time>
    </trkpt>
    <trkpt lat="43.23613" lon="-1.493511">
      <ele>572</ele>
      <time>2017-01-19T12:56:09.000Z</time>
    </trkpt>
    <trkpt lat="43.236421" lon="-1.494221">
      <ele>576</ele>
      <time>2017-01-19T12:57:07.000Z</time>
    </trkpt>
    <trkpt lat="43.236447" lon="-1.494225">
      <ele>577</ele>
      <time>2017-01-19T12:57:10.000Z</time>
    </trkpt>
    <trkpt lat="43.236665" lon="-1.494259">
      <ele>580</ele>
      <time>2017-01-19T12:57:29.000Z</time>
    </trkpt>
    <trkpt lat="43.23699" lon="-1.494526">
      <ele>572</ele>
      <time>2017-01-19T12:58:17.000Z</time>
    </trkpt>
    <trkpt lat="43.237193" lon="-1.494469">
      <ele>567</ele>
      <time>2017-01-19T13:02:19.000Z</time>
    </trkpt>
    <trkpt lat="43.237339" lon="-1.494325">
      <ele>565</ele>
      <time>2017-01-19T13:02:51.000Z</time>
    </trkpt>
    <trkpt lat="43.237377" lon="-1.494185">
      <ele>565</ele>
      <time>2017-01-19T13:04:10.000Z</time>
    </trkpt>
    <trkpt lat="43.237547" lon="-1.493724">
      <ele>563</ele>
      <time>2017-01-19T13:04:40.000Z</time>
    </trkpt>
    <trkpt lat="43.23775" lon="-1.493776">
      <ele>557</ele>
      <time>2017-01-19T13:05:06.000Z</time>
    </trkpt>
    <trkpt lat="43.237878" lon="-1.494126">
      <ele>552</ele>
      <time>2017-01-19T13:05:35.000Z</time>
    </trkpt>
    <trkpt lat="43.238139" lon="-1.494094">
      <ele>544</ele>
      <time>2017-01-19T13:05:58.000Z</time>
    </trkpt>
    <trkpt lat="43.238324" lon="-1.493783">
      <ele>543</ele>
      <time>2017-01-19T13:06:25.000Z</time>
    </trkpt>
    <trkpt lat="43.238373" lon="-1.493631">
      <ele>542</ele>
      <time>2017-01-19T13:06:37.000Z</time>
    </trkpt>
    <trkpt lat="43.238399" lon="-1.493432">
      <ele>538</ele>
      <time>2017-01-19T13:06:52.000Z</time>
    </trkpt>
    <trkpt lat="43.238166" lon="-1.493079">
      <ele>543</ele>
      <time>2017-01-19T13:07:30.000Z</time>
    </trkpt>
    <trkpt lat="43.238276" lon="-1.492992">
      <ele>538</ele>
      <time>2017-01-19T13:07:44.000Z</time>
    </trkpt>
    <trkpt lat="43.238576" lon="-1.493012">
      <ele>530</ele>
      <time>2017-01-19T13:08:13.000Z</time>
    </trkpt>
    <trkpt lat="43.238811" lon="-1.493125">
      <ele>524</ele>
      <time>2017-01-19T13:08:40.000Z</time>
    </trkpt>
    <trkpt lat="43.239067" lon="-1.493053">
      <ele>515</ele>
      <time>2017-01-19T13:09:06.000Z</time>
    </trkpt>
    <trkpt lat="43.239095" lon="-1.49264">
      <ele>510</ele>
      <time>2017-01-19T13:09:36.000Z</time>
    </trkpt>
    <trkpt lat="43.23907" lon="-1.492463">
      <ele>509</ele>
      <time>2017-01-19T13:09:50.000Z</time>
    </trkpt>
    <trkpt lat="43.238944" lon="-1.492289">
      <ele>513</ele>
      <time>2017-01-19T13:10:07.000Z</time>
    </trkpt>
    <trkpt lat="43.238708" lon="-1.491963">
      <ele>519</ele>
      <time>2017-01-19T13:10:37.000Z</time>
    </trkpt>
    <trkpt lat="43.238827" lon="-1.491734">
      <ele>507</ele>
      <time>2017-01-19T13:10:55.000Z</time>
    </trkpt>
    <trkpt lat="43.238951" lon="-1.491466">
      <ele>497</ele>
      <time>2017-01-19T13:11:20.000Z</time>
    </trkpt>
    <trkpt lat="43.239167" lon="-1.491543">
      <ele>490</ele>
      <time>2017-01-19T13:12:56.000Z</time>
    </trkpt>
    <trkpt lat="43.239044" lon="-1.491085">
      <ele>492</ele>
      <time>2017-01-19T13:13:30.000Z</time>
    </trkpt>
    <trkpt lat="43.238885" lon="-1.490722">
      <ele>502</ele>
      <time>2017-01-19T13:14:07.000Z</time>
    </trkpt>
    <trkpt lat="43.239079" lon="-1.490709">
      <ele>496</ele>
      <time>2017-01-19T13:14:34.000Z</time>
    </trkpt>
    <trkpt lat="43.239649" lon="-1.490774">
      <ele>486</ele>
      <time>2017-01-19T13:15:16.000Z</time>
    </trkpt>
    <trkpt lat="43.239837" lon="-1.491123">
      <ele>477</ele>
      <time>2017-01-19T13:15:52.000Z</time>
    </trkpt>
    <trkpt lat="43.240114" lon="-1.491361">
      <ele>472</ele>
      <time>2017-01-19T13:16:23.000Z</time>
    </trkpt>
    <trkpt lat="43.240273" lon="-1.491529">
      <ele>468</ele>
      <time>2017-01-19T13:16:42.000Z</time>
    </trkpt>
    <trkpt lat="43.240662" lon="-1.491512">
      <ele>468</ele>
      <time>2017-01-19T13:17:14.000Z</time>
    </trkpt>
    <trkpt lat="43.240753" lon="-1.491522">
      <ele>468</ele>
      <time>2017-01-19T13:17:21.000Z</time>
    </trkpt>
    <trkpt lat="43.241176" lon="-1.491493">
      <ele>466</ele>
      <time>2017-01-19T13:17:57.000Z</time>
    </trkpt>
    <trkpt lat="43.241488" lon="-1.491418">
      <ele>462</ele>
      <time>2017-01-19T13:18:28.000Z</time>
    </trkpt>
    <trkpt lat="43.24171" lon="-1.491199">
      <ele>461</ele>
      <time>2017-01-19T13:18:58.000Z</time>
    </trkpt>
    <trkpt lat="43.241896" lon="-1.491178">
      <ele>460</ele>
      <time>2017-01-19T13:19:19.000Z</time>
    </trkpt>
    <trkpt lat="43.242172" lon="-1.491203">
      <ele>459</ele>
      <time>2017-01-19T13:20:07.000Z</time>
    </trkpt>
    <trkpt lat="43.242238" lon="-1.491262">
      <ele>458</ele>
      <time>2017-01-19T13:22:17.000Z</time>
    </trkpt>
    <trkpt lat="43.242651" lon="-1.491227">
      <ele>454</ele>
      <time>2017-01-19T13:23:05.000Z</time>
    </trkpt>
    <trkpt lat="43.243035" lon="-1.491142">
      <ele>451</ele>
      <time>2017-01-19T13:23:38.000Z</time>
    </trkpt>
    <trkpt lat="43.243479" lon="-1.491096">
      <ele>450</ele>
      <time>2017-01-19T13:24:13.000Z</time>
    </trkpt>
    <trkpt lat="43.24398" lon="-1.490849">
      <ele>450</ele>
      <time>2017-01-19T13:25:02.000Z</time>
    </trkpt>
    <trkpt lat="43.244588" lon="-1.490358">
      <ele>449</ele>
      <time>2017-01-19T13:26:06.000Z</time>
    </trkpt>
    <trkpt lat="43.24503" lon="-1.490201">
      <ele>449</ele>
      <time>2017-01-19T13:26:47.000Z</time>
    </trkpt>
    <trkpt lat="43.245211" lon="-1.490226">
      <ele>448</ele>
      <time>2017-01-19T13:27:12.000Z</time>
    </trkpt>
    <trkpt lat="43.245712" lon="-1.490301">
      <ele>454</ele>
      <time>2017-01-19T13:27:56.000Z</time>
    </trkpt>
    <trkpt lat="43.24592" lon="-1.490236">
      <ele>451</ele>
      <time>2017-01-19T13:28:20.000Z</time>
    </trkpt>
    <trkpt lat="43.24608" lon="-1.490317">
      <ele>453</ele>
      <time>2017-01-19T13:28:33.000Z</time>
    </trkpt>
    <trkpt lat="43.246411" lon="-1.490701">
      <ele>464</ele>
      <time>2017-01-19T13:29:14.000Z</time>
    </trkpt>
    <trkpt lat="43.246673" lon="-1.49118">
      <ele>465</ele>
      <time>2017-01-19T13:30:00.000Z</time>
    </trkpt>
    <trkpt lat="43.246956" lon="-1.491588">
      <ele>458</ele>
      <time>2017-01-19T13:30:40.000Z</time>
    </trkpt>
    <trkpt lat="43.247116" lon="-1.491511">
      <ele>452</ele>
      <time>2017-01-19T13:30:56.000Z</time>
    </trkpt>
    <trkpt lat="43.24754" lon="-1.49148">
      <ele>441</ele>
      <time>2017-01-19T13:31:38.000Z</time>
    </trkpt>
    <trkpt lat="43.247723" lon="-1.491514">
      <ele>439</ele>
      <time>2017-01-19T13:31:59.000Z</time>
    </trkpt>
    <trkpt lat="43.248054" lon="-1.491651">
      <ele>439</ele>
      <time>2017-01-19T13:32:22.000Z</time>
    </trkpt>
    <trkpt lat="43.248591" lon="-1.491982">
      <ele>436</ele>
      <time>2017-01-19T13:33:06.000Z</time>
    </trkpt>
    <trkpt lat="43.248949" lon="-1.49247">
      <ele>433</ele>
      <time>2017-01-19T13:33:55.000Z</time>
    </trkpt>
    <trkpt lat="43.24963" lon="-1.492602">
      <ele>424</ele>
      <time>2017-01-19T13:34:34.000Z</time>
    </trkpt>
    <trkpt lat="43.249996" lon="-1.492682">
      <ele>418</ele>
      <time>2017-01-19T13:35:05.000Z</time>
    </trkpt>
    <trkpt lat="43.250289" lon="-1.492871">
      <ele>416</ele>
      <time>2017-01-19T13:35:31.000Z</time>
    </trkpt>
    <trkpt lat="43.25066" lon="-1.493094">
      <ele>413</ele>
      <time>2017-01-19T13:36:05.000Z</time>
    </trkpt>
    <trkpt lat="43.251048" lon="-1.493207">
      <ele>403</ele>
      <time>2017-01-19T13:36:39.000Z</time>
    </trkpt>
    <trkpt lat="43.251429" lon="-1.493437">
      <ele>400</ele>
      <time>2017-01-19T13:37:12.000Z</time>
    </trkpt>
    <trkpt lat="43.251737" lon="-1.493671">
      <ele>403</ele>
      <time>2017-01-19T13:37:43.000Z</time>
    </trkpt>
    <trkpt lat="43.25193" lon="-1.493814">
      <ele>400</ele>
      <time>2017-01-19T13:37:59.000Z</time>
    </trkpt>
    <trkpt lat="43.252242" lon="-1.494083">
      <ele>393</ele>
      <time>2017-01-19T13:38:29.000Z</time>
    </trkpt>
    <trkpt lat="43.252563" lon="-1.494365">
      <ele>388</ele>
      <time>2017-01-19T13:39:01.000Z</time>
    </trkpt>
    <trkpt lat="43.25271" lon="-1.494445">
      <ele>384</ele>
      <time>2017-01-19T13:39:15.000Z</time>
    </trkpt>
    <trkpt lat="43.25294" lon="-1.494602">
      <ele>381</ele>
      <time>2017-01-19T13:39:39.000Z</time>
    </trkpt>
    <trkpt lat="43.253226" lon="-1.494817">
      <ele>378</ele>
      <time>2017-01-19T13:40:07.000Z</time>
    </trkpt>
    <trkpt lat="43.253516" lon="-1.495083">
      <ele>372</ele>
      <time>2017-01-19T13:40:38.000Z</time>
    </trkpt>
    <trkpt lat="43.2538" lon="-1.495318">
      <ele>364</ele>
      <time>2017-01-19T13:41:06.000Z</time>
    </trkpt>
    <trkpt lat="43.25408" lon="-1.49544">
      <ele>355</ele>
      <time>2017-01-19T13:41:34.000Z</time>
    </trkpt>
    <trkpt lat="43.254355" lon="-1.495581">
      <ele>349</ele>
      <time>2017-01-19T13:42:00.000Z</time>
    </trkpt>
    <trkpt lat="43.254663" lon="-1.495764">
      <ele>344</ele>
      <time>2017-01-19T13:42:31.000Z</time>
    </trkpt>
    <trkpt lat="43.254847" lon="-1.495871">
      <ele>341</ele>
      <time>2017-01-19T13:42:50.000Z</time>
    </trkpt>
    <trkpt lat="43.25499" lon="-1.496037">
      <ele>340</ele>
      <time>2017-01-19T13:43:06.000Z</time>
    </trkpt>
    <trkpt lat="43.255204" lon="-1.496258">
      <ele>335</ele>
      <time>2017-01-19T13:43:33.000Z</time>
    </trkpt>
    <trkpt lat="43.255528" lon="-1.496469">
      <ele>327</ele>
      <time>2017-01-19T13:44:04.000Z</time>
    </trkpt>
    <trkpt lat="43.255674" lon="-1.496589">
      <ele>325</ele>
      <time>2017-01-19T13:44:18.000Z</time>
    </trkpt>
    <trkpt lat="43.25585" lon="-1.49672">
      <ele>322</ele>
      <time>2017-01-19T13:44:33.000Z</time>
    </trkpt>
    <trkpt lat="43.256183" lon="-1.496956">
      <ele>316</ele>
      <time>2017-01-19T13:45:04.000Z</time>
    </trkpt>
    <trkpt lat="43.256545" lon="-1.497147">
      <ele>312</ele>
      <time>2017-01-19T13:45:38.000Z</time>
    </trkpt>
    <trkpt lat="43.256617" lon="-1.49703">
      <ele>307</ele>
      <time>2017-01-19T13:45:55.000Z</time>
    </trkpt>
    <trkpt lat="43.256477" lon="-1.496707">
      <ele>303</ele>
      <time>2017-01-19T13:46:18.000Z</time>
    </trkpt>
    <trkpt lat="43.256317" lon="-1.496026">
      <ele>297</ele>
      <time>2017-01-19T13:47:00.000Z</time>
    </trkpt>
    <trkpt lat="43.25619" lon="-1.495723">
      <ele>297</ele>
      <time>2017-01-19T13:47:20.000Z</time>
    </trkpt>
    <trkpt lat="43.256336" lon="-1.495648">
      <ele>295</ele>
      <time>2017-01-19T13:47:38.000Z</time>
    </trkpt>
    <trkpt lat="43.256555" lon="-1.49591">
      <ele>292</ele>
      <time>2017-01-19T13:48:38.000Z</time>
    </trkpt>
    <trkpt lat="43.256856" lon="-1.49626">
      <ele>287</ele>
      <time>2017-01-19T13:51:43.000Z</time>
    </trkpt>
    <trkpt lat="43.256951" lon="-1.496378">
      <ele>285</ele>
      <time>2017-01-19T13:51:54.000Z</time>
    </trkpt>
    <trkpt lat="43.257059" lon="-1.496441">
      <ele>282</ele>
      <time>2017-01-19T13:52:04.000Z</time>
    </trkpt>
    <trkpt lat="43.257425" lon="-1.496573">
      <ele>270</ele>
      <time>2017-01-19T13:52:34.000Z</time>
    </trkpt>
    <trkpt lat="43.257534" lon="-1.496766">
      <ele>269</ele>
      <time>2017-01-19T13:52:52.000Z</time>
    </trkpt>
    <trkpt lat="43.257663" lon="-1.496977">
      <ele>268</ele>
      <time>2017-01-19T13:53:10.000Z</time>
    </trkpt>
    <trkpt lat="43.257899" lon="-1.496999">
      <ele>261</ele>
      <time>2017-01-19T13:53:30.000Z</time>
    </trkpt>
    <trkpt lat="43.258066" lon="-1.497041">
      <ele>258</ele>
      <time>2017-01-19T13:53:43.000Z</time>
    </trkpt>
    <trkpt lat="43.258389" lon="-1.497145">
      <ele>253</ele>
      <time>2017-01-19T13:54:10.000Z</time>
    </trkpt>
    <trkpt lat="43.258675" lon="-1.497005">
      <ele>245</ele>
      <time>2017-01-19T13:54:35.000Z</time>
    </trkpt>
    <trkpt lat="43.258753" lon="-1.496994">
      <ele>243</ele>
      <time>2017-01-19T13:54:42.000Z</time>
    </trkpt>
    <trkpt lat="43.258902" lon="-1.496975">
      <ele>240</ele>
      <time>2017-01-19T13:54:56.000Z</time>
    </trkpt>
    <trkpt lat="43.259186" lon="-1.496989">
      <ele>236</ele>
      <time>2017-01-19T13:55:15.000Z</time>
    </trkpt>
    <trkpt lat="43.259551" lon="-1.497072">
      <ele>233</ele>
      <time>2017-01-19T13:55:47.000Z</time>
    </trkpt>
    <trkpt lat="43.259802" lon="-1.497101">
      <ele>230</ele>
      <time>2017-01-19T13:56:08.000Z</time>
    </trkpt>
    <trkpt lat="43.25991" lon="-1.497099">
      <ele>229</ele>
      <time>2017-01-19T13:56:17.000Z</time>
    </trkpt>
    <trkpt lat="43.260277" lon="-1.497322">
      <ele>233</ele>
      <time>2017-01-19T13:56:50.000Z</time>
    </trkpt>
    <trkpt lat="43.260627" lon="-1.497571">
      <ele>233</ele>
      <time>2017-01-19T13:57:21.000Z</time>
    </trkpt>
    <trkpt lat="43.260914" lon="-1.497965">
      <ele>235</ele>
      <time>2017-01-19T13:58:00.000Z</time>
    </trkpt>
    <trkpt lat="43.261116" lon="-1.497937">
      <ele>229</ele>
      <time>2017-01-19T13:58:16.000Z</time>
    </trkpt>
    <trkpt lat="43.261884" lon="-1.498101">
      <ele>209</ele>
      <time>2017-01-19T13:59:20.000Z</time>
    </trkpt>
    <trkpt lat="43.262141" lon="-1.498437">
      <ele>208</ele>
      <time>2017-01-19T13:59:49.000Z</time>
    </trkpt>
    <trkpt lat="43.262253" lon="-1.498618">
      <ele>206</ele>
      <time>2017-01-19T14:00:08.000Z</time>
    </trkpt>
    <trkpt lat="43.262483" lon="-1.498657">
      <ele>201</ele>
      <time>2017-01-19T14:01:05.000Z</time>
    </trkpt>
    <trkpt lat="43.262639" lon="-1.49858">
      <ele>196</ele>
      <time>2017-01-19T14:01:32.000Z</time>
    </trkpt>
    <trkpt lat="43.262768" lon="-1.498495">
      <ele>190</ele>
      <time>2017-01-19T14:01:49.000Z</time>
    </trkpt>
    <trkpt lat="43.262982" lon="-1.498538">
      <ele>183</ele>
      <time>2017-01-19T14:02:22.000Z</time>
    </trkpt>
    <trkpt lat="43.263172" lon="-1.49858">
      <ele>178</ele>
      <time>2017-01-19T14:02:37.000Z</time>
    </trkpt>
    <trkpt lat="43.263329" lon="-1.498699">
      <ele>176</ele>
      <time>2017-01-19T14:02:56.000Z</time>
    </trkpt>
    <trkpt lat="43.263439" lon="-1.498807">
      <ele>176</ele>
      <time>2017-01-19T14:03:12.000Z</time>
    </trkpt>
    <trkpt lat="43.263697" lon="-1.498854">
      <ele>173</ele>
      <time>2017-01-19T14:03:41.000Z</time>
    </trkpt>
    <trkpt lat="43.263922" lon="-1.498837">
      <ele>167</ele>
      <time>2017-01-19T14:04:11.000Z</time>
    </trkpt>
    <trkpt lat="43.264032" lon="-1.498861">
      <ele>162</ele>
      <time>2017-01-19T14:04:25.000Z</time>
    </trkpt>
    <trkpt lat="43.264198" lon="-1.499199">
      <ele>158</ele>
      <time>2017-01-19T14:04:56.000Z</time>
    </trkpt>
    <trkpt lat="43.264279" lon="-1.499335">
      <ele>154</ele>
      <time>2017-01-19T14:05:10.000Z</time>
    </trkpt>
    <trkpt lat="43.264425" lon="-1.499465">
      <ele>148</ele>
      <time>2017-01-19T14:05:31.000Z</time>
    </trkpt>
    <trkpt lat="43.264587" lon="-1.499618">
      <ele>143</ele>
      <time>2017-01-19T14:05:58.000Z</time>
    </trkpt>
    <trkpt lat="43.264553" lon="-1.499891">
      <ele>142</ele>
      <time>2017-01-19T14:06:25.000Z</time>
    </trkpt>
    <trkpt lat="43.264594" lon="-1.500187">
      <ele>138</ele>
      <time>2017-01-19T14:06:55.000Z</time>
    </trkpt>
    <trkpt lat="43.264799" lon="-1.50043">
      <ele>131</ele>
      <time>2017-01-19T14:07:18.000Z</time>
    </trkpt>
    <trkpt lat="43.264848" lon="-1.500598">
      <ele>129</ele>
      <time>2017-01-19T14:07:34.000Z</time>
    </trkpt>
    <trkpt lat="43.264884" lon="-1.500738">
      <ele>128</ele>
      <time>2017-01-19T14:07:46.000Z</time>
    </trkpt>
    <trkpt lat="43.26506" lon="-1.501019">
      <ele>123</ele>
      <time>2017-01-19T14:08:07.000Z</time>
    </trkpt>
    <trkpt lat="43.265308" lon="-1.501343">
      <ele>111</ele>
      <time>2017-01-19T14:08:36.000Z</time>
    </trkpt>
    <trkpt lat="43.265494" lon="-1.501494">
      <ele>106</ele>
      <time>2017-01-19T14:10:09.000Z</time>
    </trkpt>
    <trkpt lat="43.265873" lon="-1.501645">
      <ele>104</ele>
      <time>2017-01-19T14:10:55.000Z</time>
    </trkpt>
    <trkpt lat="43.266218" lon="-1.502075">
      <ele>100</ele>
      <time>2017-01-19T14:11:40.000Z</time>
    </trkpt>
    <trkpt lat="43.266439" lon="-1.502434">
      <ele>98</ele>
      <time>2017-01-19T14:12:09.000Z</time>
    </trkpt>
    <trkpt lat="43.266631" lon="-1.502658">
      <ele>99</ele>
      <time>2017-01-19T14:12:40.000Z</time>
    </trkpt>
    <trkpt lat="43.266655" lon="-1.502948">
      <ele>97</ele>
      <time>2017-01-19T14:13:05.000Z</time>
    </trkpt>
    <trkpt lat="43.26653" lon="-1.503291">
      <ele>98</ele>
      <time>2017-01-19T14:13:47.000Z</time>
    </trkpt>
    <trkpt lat="43.266475" lon="-1.503763">
      <ele>99</ele>
      <time>2017-01-19T14:15:15.000Z</time>
    </trkpt>
  </trkseg>
</trk></gpx>